• Join FlightAware (Why Join?)
  • Login
  • US Flag 
12:20AM EST


 

Airport Tracker/Info


-or-


 

Live Flight TrackerFlight Track Log ✈ N600TR ✈ 12-Aug-2013 ✈ KTUL - KATL

Flight Track Log - Related Links

Times and Time Zones

All times are in EDT time to prevent confusion due to time zone crossing. See the N600TR flight status page for this flight to view local times or setup timezone preferences in your user account.

Time Position Orientation Groundspeed Altitude Reporting Facility
EDT Latitude Longitude Course Direction KTS MPH feet Rate Location/Type
08:51PM 36.2156 -95.8814 14° North 156 180 1,400  Level Kansas City Center
08:52PM 36.2872 -95.8592 14° North 238 274 3,700 1,620 Climbing Kansas City Center
08:53PM 36.2906 -95.8203 84° East 229 264 4,800 1,740 Climbing Kansas City Center
08:54PM 36.2614 -95.7400 114° Southeast 252 290 6,700 2,400 Climbing Kansas City Center
08:55PM 36.2186 -95.6292 116° Southeast 292 336 9,800 2,460 Climbing Kansas City Center
08:56PM 36.1811 -95.5322 116° Southeast 309 356 11,700 1,440 Climbing Kansas City Center
08:57PM 36.1358 -95.4186 116° Southeast 360 414 12,800 1,560 Climbing Kansas City Center
08:58PM 36.0850 -95.2958 117° Southeast 396 456 15,000 2,040 Climbing Kansas City Center
08:59PM 36.0431 -95.1619 111° Southeast 415 478 17,000 1,920 Climbing Kansas City Center
09:00PM 36.0117 -94.9872 102° East 432 497 19,100 1,620 Climbing Kansas City Center
09:02PM 36.0611 -94.6894 73° East 452 520 22,100 1,440 Climbing Kansas City Center
09:03PM 36.1014 -94.6445 73° East  Level FlightAware Approximate
09:04PM 36.1686 -94.3856 66° East 461 531 25,000  Level Memphis Center
09:05PM 36.2172 -94.2397 68° East 480 552 26,200 1,140 Climbing Kansas City Center
09:06PM 36.2411 -94.0650 80° East 484 557 27,300 1,260 Climbing Memphis Center
09:07PM 36.1917 -93.9033 111° Southeast 475 547 28,700 840 Climbing Memphis Center
09:08PM 36.1308 -93.7697 119° Southeast 485 558 29,000 120 Climbing Memphis Center
09:09PM 36.0722 -93.6158 115° Southeast 490 564 29,000  Level Memphis Center
09:10PM 36.0306 -93.4550 108° East 490 564 29,000  Level Memphis Center
09:11PM 35.9928 -93.2944 106° East 485 558 29,000  Level Memphis Center
09:12PM 35.9528 -93.1314 107° East 485 558 29,000  Level Memphis Center
09:13PM 35.9039 -92.9761 111° Southeast 485 558 29,000  Level Memphis Center
09:14PM 35.8508 -92.8156 112° Southeast 491 565 29,000  Level Memphis Center
09:15PM 35.8017 -92.6631 112° Southeast 491 565 29,000  Level Memphis Center
09:16PM 35.7506 -92.4956 111° Southeast 491 565 29,000  Level Memphis Center
09:17PM 35.7031 -92.3383 110° East 486 559 29,000  Level Memphis Center
09:18PM 35.6511 -92.1811 112° Southeast 486 559 29,000  Level Memphis Center
09:19PM 35.5969 -92.0269 113° Southeast 486 559 29,000  Level Memphis Center
09:20PM 35.5553 -91.8703 108° East 486 559 29,000 600 Level Memphis Center
09:21PM 35.5217 -91.7089 104° East 481 554 30,300 960 Climbing Memphis Center
09:22PM 35.4919 -91.5531 103° East 481 554 31,000 300 Climbing Memphis Center
09:23PM 35.4517 -91.3944 107° East 476 548 31,000  Level Memphis Center
09:24PM 35.4175 -91.2258 104° East 481 554 31,000  Level Memphis Center
09:25PM 35.3869 -91.1008 107° East 494 568 31,000  Level Memphis Center
09:26PM 35.3461 -90.9297 106° East 480 552 31,000  Level Memphis Center
09:27PM 35.3069 -90.7794 108° East 465 535 31,000  Level Memphis Center
09:28PM 35.2575 -90.6367 113° Southeast 459 528 31,000  Level Memphis Center
09:29PM 35.1931 -90.4942 119° Southeast 466 536 31,000  Level Memphis Center
09:30PM 35.1283 -90.3569 120° Southeast 471 542 31,000  Level Memphis Center
09:31PM 35.0906 -90.1897 105° East 459 528 31,000 480 Level Memphis Center
09:32PM 35.0758 -90.0272 96° East 471 542 32,000 900 Climbing Memphis Center
09:33PM 35.0606 -89.8675 97° East 471 542 32,900 480 Climbing Memphis Center
09:34PM 35.0431 -89.7003 97° East 480 552 33,000  Climbing Memphis Center
09:35PM 35.0192 -89.5356 100° East 491 565 33,000  Level Memphis Center
09:36PM 34.9994 -89.3886 99° East 491 565 33,000  Level Memphis Center
09:37PM 34.9458 -89.2372 113° Southeast 486 559 33,000  Level Memphis Center
09:38PM 34.8986 -89.0836 111° Southeast 486 559 33,000  Level Memphis Center
09:39PM 34.8531 -88.9247 109° East 491 565 33,000  Level Memphis Center
09:40PM 34.7783 -88.7869 123° Southeast 480 552 33,000  Level Memphis Center
09:41PM 34.6908 -88.6422 126° Southeast 480 552 33,000  Level Memphis Center
09:42PM 34.6117 -88.5125 127° Southeast 492 566 33,000  Level Memphis Center
09:43PM 34.5597 -88.3850 116° Southeast 480 552 33,000  Level Memphis Center
09:44PM 34.5175 -88.2322 109° East 475 547 33,000  Level Memphis Center
09:45PM 34.4850 -88.0492 102° East 486 559 33,000  Level Memphis Center
09:46PM 34.4714 -87.8856 96° East 486 559 33,000  Level Memphis Center
09:47PM 34.4619 -87.7247 94° East 480 552 33,000 -360 Level Memphis Center
09:49PM 34.4469 -87.4972 95° East 466 536 32,100 -780 Descending Atlanta Center
09:50PM 34.4414 -87.3156 92° East 494 568 31,100 -900 Descending Atlanta Center
09:51PM 34.4372 -87.1619 92° East 477 549 30,300 -840 Descending Atlanta Center
09:52PM 34.4244 -87.0028 96° East 470 541 29,500 -660 Descending Atlanta Center
09:53PM 34.4072 -86.8386 97° East 475 547 29,000 -300 Descending Atlanta Center
09:54PM 34.3922 -86.6794 96° East 480 552 29,000 -300 Level Atlanta Center
09:55PM 34.3725 -86.5178 98° East 480 552 28,500 -840 Descending Atlanta Center
09:56PM 34.3547 -86.3636 98° East 480 552 27,400 -1,080 Descending Atlanta Center
09:57PM 34.3386 -86.2097 97° East 469 540 26,400 -1,080 Descending Atlanta Center
09:58PM 34.3161 -86.0633 101° East 456 525 25,300 -1,380 Descending Atlanta Center
09:59PM 34.2914 -85.9169 102° East 446 513 23,700 -1,320 Descending Atlanta Center
10:00PM 34.2681 -85.7908 103° East 446 513 22,700 -1,260 Descending Atlanta Center
10:01PM 34.2450 -85.6469 101° East 434 499 21,200 -1,200 Descending Atlanta Center
10:02PM 34.2197 -85.5058 102° East 429 494 20,300 -1,620 Descending Atlanta Center
10:03PM 34.2003 -85.3675 100° East 424 488 18,000 -2,460 Descending Atlanta Center
10:04PM 34.1872 -85.2317 97° East 413 475 15,400 -1,800 Descending Atlanta Center
10:05PM 34.1508 -85.0956 108° East 396 456 14,400 -720 Descending Atlanta Center
10:06PM 34.0764 -85.0069 135° Southeast 373 429 14,000 -600 Descending Atlanta Center
10:07PM 33.9997 -84.9208 137° Southeast 373 429 13,300 -840 Descending Atlanta Center
10:08PM 33.9211 -84.8250 135° Southeast 388 447 12,400 -660 Descending Atlanta Center
10:09PM 33.8486 -84.7292 132° Southeast 393 452 12,000 -240 Descending Atlanta Center
10:10PM 33.7822 -84.6411 132° Southeast 372 428 12,000 -120 Level Atlanta Center
10:11PM 33.7431 -84.5558 119° Southeast 324 373 11,800 -780 Descending Atlanta Center
10:12PM 33.7267 -84.4758 104° East 269 310 10,500 -1,320 Descending Atlanta Center
10:13PM 33.7333 -84.3911 85° East 254 292 9,200 -1,620 Descending Atlanta Center
10:14PM 33.7500 -84.2667 81° East 249 287 6,700 -1,680 Descending Atlanta TRACON
10:15PM 33.7167 -84.2000 121° Southeast 248 285 5,000 -1,500 Descending Atlanta TRACON
10:16PM 33.6667 -84.2167 196° South 211 243 3,700 -900 Descending Atlanta TRACON
10:17PM 33.6500 -84.2833 253° West 179 206 3,400 -720 Descending Atlanta TRACON
10:18PM 33.6500 -84.3333 270° West 134 154 2,300 -900 Descending Atlanta TRACON
10:19PM 33.6500 -84.3667 270° West 122 140 1,600 -720 Descending Atlanta TRACON